Otranto, Iowa
Current Conditions -  °F | °C
As of 8:16 AM on Saturday 22 Nov 2014 (Local Time) from KAUM Reporting Station
Drizzle Drizzle  
Wind Chill: 27°   Ceiling: 100
Heat Index: 34°   Visibility: 0mi
Dew Point: 34°   Wind: 8mph
Humidity: 100%   Direction: 180°S
Pressure: 29.81"   Gusts: NA
Location:  43.4276°N, 92.9158°W
Report Text: KAUM 221416Z AUTO 18007KT M1/4SM DZ OVC001 01/01 A2981 RMK AO2
Loading
Personal Weather Stations






























Interactive Weather Map New forecast layout! Learn more

10-Day Weather Forecast

Advertisements
Track Severe Weather on mobile